sensor_id;sensor_type;location;lat;lon;timestamp;P1;durP1;ratioP1;P2;durP2;ratioP2
60038;SDS011;45916;52.734;6.544;2023-04-24T00:00:08;5.00;;;3.35;;
60038;SDS011;45916;52.734;6.544;2023-04-24T00:02:35;6.60;;;3.88;;
60038;SDS011;45916;52.734;6.544;2023-04-24T00:05:06;4.80;;;3.47;;
60038;SDS011;45916;52.734;6.544;2023-04-24T00:07:33;5.82;;;4.05;;
60038;SDS011;45916;52.734;6.544;2023-04-24T00:09:59;5.80;;;3.85;;
60038;SDS011;45916;52.734;6.544;2023-04-24T00:12:25;5.35;;;3.80;;
60038;SDS011;45916;52.734;6.544;2023-04-24T00:14:52;6.60;;;4.63;;
60038;SDS011;45916;52.734;6.544;2023-04-24T00:17:18;6.00;;;4.47;;
60038;SDS011;45916;52.734;6.544;2023-04-24T00:19:46;7.03;;;4.88;;
60038;SDS011;45916;52.734;6.544;2023-04-24T00:22:12;6.78;;;5.22;;
60038;SDS011;45916;52.734;6.544;2023-04-24T00:24:38;6.75;;;4.93;;
60038;SDS011;45916;52.734;6.544;2023-04-24T00:27:04;7.78;;;5.82;;
60038;SDS011;45916;52.734;6.544;2023-04-24T00:29:30;7.00;;;5.90;;
60038;SDS011;45916;52.734;6.544;2023-04-24T00:31:56;7.03;;;5.80;;
60038;SDS011;45916;52.734;6.544;2023-04-24T00:34:22;8.55;;;6.00;;
60038;SDS011;45916;52.734;6.544;2023-04-24T00:36:47;8.88;;;5.85;;
60038;SDS011;45916;52.734;6.544;2023-04-24T00:39:17;8.73;;;6.05;;
60038;SDS011;45916;52.734;6.544;2023-04-24T00:41:46;8.38;;;5.93;;
60038;SDS011;45916;52.734;6.544;2023-04-24T00:44:13;8.43;;;6.40;;
60038;SDS011;45916;52.734;6.544;2023-04-24T00:46:39;8.45;;;6.30;;
60038;SDS011;45916;52.734;6.544;2023-04-24T00:49:05;8.50;;;6.70;;
60038;SDS011;45916;52.734;6.544;2023-04-24T00:51:31;8.27;;;6.10;;
60038;SDS011;45916;52.734;6.544;2023-04-24T00:53:58;8.35;;;6.32;;
60038;SDS011;45916;52.734;6.544;2023-04-24T00:56:24;7.97;;;5.50;;
60038;SDS011;45916;52.734;6.544;2023-04-24T00:58:50;9.82;;;7.00;;
60038;SDS011;45916;52.734;6.544;2023-04-24T01:01:16;7.93;;;5.65;;
60038;SDS011;45916;52.734;6.544;2023-04-24T01:03:45;7.13;;;4.78;;
60038;SDS011;45916;52.734;6.544;2023-04-24T01:06:11;5.97;;;4.60;;
60038;SDS011;45916;52.734;6.544;2023-04-24T01:08:38;5.75;;;3.97;;
60038;SDS011;45916;52.734;6.544;2023-04-24T01:11:04;5.32;;;3.65;;
60038;SDS011;45916;52.734;6.544;2023-04-24T01:13:31;6.00;;;4.15;;
60038;SDS011;45916;52.734;6.544;2023-04-24T01:15:57;7.30;;;5.38;;
60038;SDS011;45916;52.734;6.544;2023-04-24T01:18:23;5.90;;;4.80;;
60038;SDS011;45916;52.734;6.544;2023-04-24T01:20:49;6.18;;;4.65;;
60038;SDS011;45916;52.734;6.544;2023-04-24T01:23:19;6.25;;;5.07;;
60038;SDS011;45916;52.734;6.544;2023-04-24T01:25:45;6.00;;;4.95;;
60038;SDS011;45916;52.734;6.544;2023-04-24T01:28:11;7.00;;;5.90;;
60038;SDS011;45916;52.734;6.544;2023-04-24T01:30:37;7.78;;;6.18;;
60038;SDS011;45916;52.734;6.544;2023-04-24T01:33:03;6.85;;;5.88;;
60038;SDS011;45916;52.734;6.544;2023-04-24T01:35:29;7.18;;;5.93;;
60038;SDS011;45916;52.734;6.544;2023-04-24T01:37:55;6.80;;;5.97;;
60038;SDS011;45916;52.734;6.544;2023-04-24T01:40:20;7.22;;;6.20;;
60038;SDS011;45916;52.734;6.544;2023-04-24T01:42:46;7.57;;;6.07;;
60038;SDS011;45916;52.734;6.544;2023-04-24T01:45:12;6.90;;;6.20;;
60038;SDS011;45916;52.734;6.544;2023-04-24T01:47:39;7.68;;;6.38;;
60038;SDS011;45916;52.734;6.544;2023-04-24T01:50:06;7.53;;;5.85;;
60038;SDS011;45916;52.734;6.544;2023-04-24T01:52:32;7.05;;;5.80;;
60038;SDS011;45916;52.734;6.544;2023-04-24T01:55:02;6.35;;;5.35;;
60038;SDS011;45916;52.734;6.544;2023-04-24T01:57:29;7.60;;;6.80;;
60038;SDS011;45916;52.734;6.544;2023-04-24T01:59:55;7.15;;;5.90;;
60038;SDS011;45916;52.734;6.544;2023-04-24T02:02:21;7.90;;;6.32;;
60038;SDS011;45916;52.734;6.544;2023-04-24T02:04:49;8.18;;;7.18;;
60038;SDS011;45916;52.734;6.544;2023-04-24T02:07:15;7.50;;;6.35;;
60038;SDS011;45916;52.734;6.544;2023-04-24T02:09:41;8.20;;;7.40;;
60038;SDS011;45916;52.734;6.544;2023-04-24T02:12:07;8.75;;;7.57;;
60038;SDS011;45916;52.734;6.544;2023-04-24T02:14:33;8.93;;;7.82;;
60038;SDS011;45916;52.734;6.544;2023-04-24T02:16:58;9.15;;;8.05;;
60038;SDS011;45916;52.734;6.544;2023-04-24T02:19:25;9.75;;;8.25;;
60038;SDS011;45916;52.734;6.544;2023-04-24T02:21:51;9.88;;;8.60;;
60038;SDS011;45916;52.734;6.544;2023-04-24T02:24:18;11.07;;;8.13;;
60038;SDS011;45916;52.734;6.544;2023-04-24T02:26:43;9.63;;;8.63;;
60038;SDS011;45916;52.734;6.544;2023-04-24T02:29:09;10.15;;;8.75;;
60038;SDS011;45916;52.734;6.544;2023-04-24T02:31:35;10.48;;;8.80;;
60038;SDS011;45916;52.734;6.544;2023-04-24T02:34:01;9.73;;;8.55;;
60038;SDS011;45916;52.734;6.544;2023-04-24T02:36:27;9.55;;;8.55;;
60038;SDS011;45916;52.734;6.544;2023-04-24T02:38:52;9.85;;;8.85;;
60038;SDS011;45916;52.734;6.544;2023-04-24T02:41:18;9.63;;;8.63;;
60038;SDS011;45916;52.734;6.544;2023-04-24T02:43:44;9.30;;;8.15;;
60038;SDS011;45916;52.734;6.544;2023-04-24T02:46:10;8.77;;;7.88;;
60038;SDS011;45916;52.734;6.544;2023-04-24T02:48:36;9.50;;;8.48;;
60038;SDS011;45916;52.734;6.544;2023-04-24T02:51:02;10.10;;;9.00;;
60038;SDS011;45916;52.734;6.544;2023-04-24T02:53:27;9.70;;;8.63;;
60038;SDS011;45916;52.734;6.544;2023-04-24T02:55:54;11.05;;;9.40;;
60038;SDS011;45916;52.734;6.544;2023-04-24T02:58:20;10.38;;;9.27;;
60038;SDS011;45916;52.734;6.544;2023-04-24T03:00:46;11.20;;;9.60;;
60038;SDS011;45916;52.734;6.544;2023-04-24T03:03:12;10.45;;;9.35;;
60038;SDS011;45916;52.734;6.544;2023-04-24T03:05:38;10.27;;;9.27;;
60038;SDS011;45916;52.734;6.544;2023-04-24T03:08:03;9.57;;;8.52;;
60038;SDS011;45916;52.734;6.544;2023-04-24T03:10:29;9.88;;;8.88;;
60038;SDS011;45916;52.734;6.544;2023-04-24T03:12:55;9.57;;;8.50;;
60038;SDS011;45916;52.734;6.544;2023-04-24T03:15:21;8.70;;;7.20;;
60038;SDS011;45916;52.734;6.544;2023-04-24T03:17:47;9.18;;;8.15;;
60038;SDS011;45916;52.734;6.544;2023-04-24T03:20:13;10.40;;;9.35;;
60038;SDS011;45916;52.734;6.544;2023-04-24T03:22:38;9.30;;;8.05;;
60038;SDS011;45916;52.734;6.544;2023-04-24T03:25:04;10.75;;;8.65;;
60038;SDS011;45916;52.734;6.544;2023-04-24T03:27:30;10.63;;;8.50;;
60038;SDS011;45916;52.734;6.544;2023-04-24T03:29:56;10.27;;;8.25;;
60038;SDS011;45916;52.734;6.544;2023-04-24T03:32:23;9.75;;;8.32;;
60038;SDS011;45916;52.734;6.544;2023-04-24T03:34:49;11.27;;;9.20;;
60038;SDS011;45916;52.734;6.544;2023-04-24T03:37:15;9.48;;;8.20;;
60038;SDS011;45916;52.734;6.544;2023-04-24T03:39:41;9.88;;;8.55;;
60038;SDS011;45916;52.734;6.544;2023-04-24T03:42:07;9.95;;;8.10;;
60038;SDS011;45916;52.734;6.544;2023-04-24T03:44:33;10.48;;;8.10;;
60038;SDS011;45916;52.734;6.544;2023-04-24T03:47:00;9.57;;;8.57;;
60038;SDS011;45916;52.734;6.544;2023-04-24T03:49:25;10.23;;;8.43;;
60038;SDS011;45916;52.734;6.544;2023-04-24T03:51:51;10.93;;;8.80;;
60038;SDS011;45916;52.734;6.544;2023-04-24T03:54:18;10.35;;;8.88;;
60038;SDS011;45916;52.734;6.544;2023-04-24T03:56:44;11.15;;;9.43;;
60038;SDS011;45916;52.734;6.544;2023-04-24T03:59:10;11.25;;;9.52;;
60038;SDS011;45916;52.734;6.544;2023-04-24T04:01:36;11.32;;;10.13;;
60038;SDS011;45916;52.734;6.544;2023-04-24T04:04:02;12.15;;;10.43;;
60038;SDS011;45916;52.734;6.544;2023-04-24T04:06:29;10.25;;;8.90;;
60038;SDS011;45916;52.734;6.544;2023-04-24T04:08:55;12.40;;;9.95;;
60038;SDS011;45916;52.734;6.544;2023-04-24T04:11:22;12.18;;;10.07;;
60038;SDS011;45916;52.734;6.544;2023-04-24T04:13:48;12.10;;;9.52;;
60038;SDS011;45916;52.734;6.544;2023-04-24T04:16:14;11.65;;;9.50;;
60038;SDS011;45916;52.734;6.544;2023-04-24T04:18:42;10.60;;;9.18;;
60038;SDS011;45916;52.734;6.544;2023-04-24T04:21:10;12.10;;;9.05;;
60038;SDS011;45916;52.734;6.544;2023-04-24T04:23:36;11.30;;;9.93;;
60038;SDS011;45916;52.734;6.544;2023-04-24T04:26:02;11.65;;;9.43;;
60038;SDS011;45916;52.734;6.544;2023-04-24T04:28:29;10.90;;;9.02;;
60038;SDS011;45916;52.734;6.544;2023-04-24T04:30:57;10.35;;;7.70;;
60038;SDS011;45916;52.734;6.544;2023-04-24T04:33:23;9.63;;;7.28;;
60038;SDS011;45916;52.734;6.544;2023-04-24T04:35:50;7.97;;;5.55;;
60038;SDS011;45916;52.734;6.544;2023-04-24T04:40:44;7.68;;;5.00;;
60038;SDS011;45916;52.734;6.544;2023-04-24T04:43:10;8.57;;;4.97;;
60038;SDS011;45916;52.734;6.544;2023-04-24T04:45:38;7.60;;;4.72;;
60038;SDS011;45916;52.734;6.544;2023-04-24T04:48:05;6.75;;;4.50;;
60038;SDS011;45916;52.734;6.544;2023-04-24T04:50:33;6.55;;;4.32;;
60038;SDS011;45916;52.734;6.544;2023-04-24T04:52:59;7.90;;;5.30;;
60038;SDS011;45916;52.734;6.544;2023-04-24T04:55:25;8.35;;;5.43;;
60038;SDS011;45916;52.734;6.544;2023-04-24T04:57:51;8.32;;;6.28;;
60038;SDS011;45916;52.734;6.544;2023-04-24T05:00:17;7.53;;;5.43;;
60038;SDS011;45916;52.734;6.544;2023-04-24T05:02:44;7.93;;;5.93;;
60038;SDS011;45916;52.734;6.544;2023-04-24T05:05:09;9.38;;;5.88;;
60038;SDS011;45916;52.734;6.544;2023-04-24T05:07:35;8.43;;;6.22;;
60038;SDS011;45916;52.734;6.544;2023-04-24T05:10:01;8.68;;;5.55;;
60038;SDS011;45916;52.734;6.544;2023-04-24T05:12:27;8.90;;;6.10;;
60038;SDS011;45916;52.734;6.544;2023-04-24T05:14:53;9.38;;;6.72;;
60038;SDS011;45916;52.734;6.544;2023-04-24T05:17:19;10.27;;;7.35;;
60038;SDS011;45916;52.734;6.544;2023-04-24T05:19:44;8.55;;;5.40;;
60038;SDS011;45916;52.734;6.544;2023-04-24T05:22:11;9.05;;;6.72;;
60038;SDS011;45916;52.734;6.544;2023-04-24T05:24:37;8.32;;;5.80;;
60038;SDS011;45916;52.734;6.544;2023-04-24T05:27:03;8.15;;;6.15;;
60038;SDS011;45916;52.734;6.544;2023-04-24T05:29:32;8.68;;;6.15;;
60038;SDS011;45916;52.734;6.544;2023-04-24T05:31:58;8.85;;;5.88;;
60038;SDS011;45916;52.734;6.544;2023-04-24T05:34:25;9.35;;;5.93;;
60038;SDS011;45916;52.734;6.544;2023-04-24T05:36:51;8.15;;;5.05;;
60038;SDS011;45916;52.734;6.544;2023-04-24T05:39:17;6.60;;;4.28;;
60038;SDS011;45916;52.734;6.544;2023-04-24T05:41:43;5.60;;;3.35;;
60038;SDS011;45916;52.734;6.544;2023-04-24T05:44:09;5.63;;;3.40;;
60038;SDS011;45916;52.734;6.544;2023-04-24T05:46:34;5.65;;;3.08;;
60038;SDS011;45916;52.734;6.544;2023-04-24T05:49:00;6.55;;;3.20;;
60038;SDS011;45916;52.734;6.544;2023-04-24T05:51:27;7.85;;;3.63;;
60038;SDS011;45916;52.734;6.544;2023-04-24T05:53:52;7.70;;;3.90;;
60038;SDS011;45916;52.734;6.544;2023-04-24T05:56:18;7.47;;;3.97;;
60038;SDS011;45916;52.734;6.544;2023-04-24T05:58:45;7.38;;;3.67;;
60038;SDS011;45916;52.734;6.544;2023-04-24T06:01:11;7.13;;;4.03;;
60038;SDS011;45916;52.734;6.544;2023-04-24T06:03:38;5.88;;;3.03;;
60038;SDS011;45916;52.734;6.544;2023-04-24T06:06:05;5.35;;;2.83;;
60038;SDS011;45916;52.734;6.544;2023-04-24T06:08:31;6.63;;;3.97;;
60038;SDS011;45916;52.734;6.544;2023-04-24T06:10:57;7.15;;;4.22;;
60038;SDS011;45916;52.734;6.544;2023-04-24T06:13:23;7.35;;;4.63;;
60038;SDS011;45916;52.734;6.544;2023-04-24T06:15:49;7.78;;;5.05;;
60038;SDS011;45916;52.734;6.544;2023-04-24T06:18:16;7.35;;;4.22;;
60038;SDS011;45916;52.734;6.544;2023-04-24T06:20:41;6.80;;;4.05;;
60038;SDS011;45916;52.734;6.544;2023-04-24T06:23:07;8.00;;;4.78;;
60038;SDS011;45916;52.734;6.544;2023-04-24T06:25:33;7.10;;;4.50;;
60038;SDS011;45916;52.734;6.544;2023-04-24T06:27:59;8.35;;;4.65;;
60038;SDS011;45916;52.734;6.544;2023-04-24T06:30:25;7.00;;;4.43;;
60038;SDS011;45916;52.734;6.544;2023-04-24T06:32:52;8.00;;;4.63;;
60038;SDS011;45916;52.734;6.544;2023-04-24T06:35:18;7.90;;;5.10;;
60038;SDS011;45916;52.734;6.544;2023-04-24T06:37:43;7.22;;;5.00;;
60038;SDS011;45916;52.734;6.544;2023-04-24T06:40:09;7.90;;;4.05;;
60038;SDS011;45916;52.734;6.544;2023-04-24T06:42:35;7.65;;;4.55;;
60038;SDS011;45916;52.734;6.544;2023-04-24T06:45:01;7.78;;;4.30;;
60038;SDS011;45916;52.734;6.544;2023-04-24T06:47:28;7.03;;;4.10;;
60038;SDS011;45916;52.734;6.544;2023-04-24T06:49:54;7.10;;;3.67;;
60038;SDS011;45916;52.734;6.544;2023-04-24T06:52:20;7.68;;;4.25;;
60038;SDS011;45916;52.734;6.544;2023-04-24T06:54:46;8.05;;;4.30;;
60038;SDS011;45916;52.734;6.544;2023-04-24T06:57:11;8.32;;;5.38;;
60038;SDS011;45916;52.734;6.544;2023-04-24T06:59:37;8.18;;;4.97;;
60038;SDS011;45916;52.734;6.544;2023-04-24T07:02:03;9.32;;;5.38;;
60038;SDS011;45916;52.734;6.544;2023-04-24T07:04:29;8.05;;;4.53;;
60038;SDS011;45916;52.734;6.544;2023-04-24T07:06:56;6.70;;;3.78;;
60038;SDS011;45916;52.734;6.544;2023-04-24T07:09:23;7.28;;;4.05;;
60038;SDS011;45916;52.734;6.544;2023-04-24T07:11:50;5.82;;;3.78;;
60038;SDS011;45916;52.734;6.544;2023-04-24T07:14:16;5.93;;;3.70;;
60038;SDS011;45916;52.734;6.544;2023-04-24T07:16:42;6.55;;;4.28;;
60038;SDS011;45916;52.734;6.544;2023-04-24T07:19:08;6.45;;;4.25;;
60038;SDS011;45916;52.734;6.544;2023-04-24T07:21:34;8.85;;;4.80;;
60038;SDS011;45916;52.734;6.544;2023-04-24T07:24:00;10.40;;;5.38;;
60038;SDS011;45916;52.734;6.544;2023-04-24T07:26:27;9.13;;;5.53;;
60038;SDS011;45916;52.734;6.544;2023-04-24T07:28:54;8.90;;;5.78;;
60038;SDS011;45916;52.734;6.544;2023-04-24T07:31:20;9.30;;;6.78;;
60038;SDS011;45916;52.734;6.544;2023-04-24T07:33:46;9.02;;;6.00;;
60038;SDS011;45916;52.734;6.544;2023-04-24T07:36:12;10.32;;;6.38;;
60038;SDS011;45916;52.734;6.544;2023-04-24T07:38:42;9.50;;;6.43;;
60038;SDS011;45916;52.734;6.544;2023-04-24T07:41:08;9.27;;;6.93;;
60038;SDS011;45916;52.734;6.544;2023-04-24T07:43:34;9.85;;;6.78;;
60038;SDS011;45916;52.734;6.544;2023-04-24T07:46:00;8.40;;;5.72;;
60038;SDS011;45916;52.734;6.544;2023-04-24T07:48:26;10.55;;;7.07;;
60038;SDS011;45916;52.734;6.544;2023-04-24T07:50:52;8.73;;;6.13;;
60038;SDS011;45916;52.734;6.544;2023-04-24T07:53:18;8.50;;;6.05;;
60038;SDS011;45916;52.734;6.544;2023-04-24T07:55:44;9.15;;;6.10;;
60038;SDS011;45916;52.734;6.544;2023-04-24T07:58:10;8.85;;;6.18;;
60038;SDS011;45916;52.734;6.544;2023-04-24T08:00:35;10.50;;;5.88;;
60038;SDS011;45916;52.734;6.544;2023-04-24T08:03:01;8.38;;;4.85;;
60038;SDS011;45916;52.734;6.544;2023-04-24T08:05:27;6.55;;;4.10;;
60038;SDS011;45916;52.734;6.544;2023-04-24T08:07:53;8.68;;;4.72;;
60038;SDS011;45916;52.734;6.544;2023-04-24T08:10:20;8.18;;;4.90;;
60038;SDS011;45916;52.734;6.544;2023-04-24T08:12:50;8.55;;;5.28;;
60038;SDS011;45916;52.734;6.544;2023-04-24T08:15:16;7.40;;;5.30;;
60038;SDS011;45916;52.734;6.544;2023-04-24T08:17:41;6.95;;;4.60;;
60038;SDS011;45916;52.734;6.544;2023-04-24T08:20:08;7.70;;;5.10;;
60038;SDS011;45916;52.734;6.544;2023-04-24T08:22:40;8.38;;;4.43;;
60038;SDS011;45916;52.734;6.544;2023-04-24T08:25:06;7.10;;;4.28;;
60038;SDS011;45916;52.734;6.544;2023-04-24T08:27:32;8.60;;;5.72;;
60038;SDS011;45916;52.734;6.544;2023-04-24T08:29:58;8.68;;;5.88;;
60038;SDS011;45916;52.734;6.544;2023-04-24T08:32:25;9.90;;;6.55;;
60038;SDS011;45916;52.734;6.544;2023-04-24T08:34:54;11.63;;;7.72;;
60038;SDS011;45916;52.734;6.544;2023-04-24T08:37:23;12.95;;;7.43;;
60038;SDS011;45916;52.734;6.544;2023-04-24T08:39:51;13.50;;;8.07;;
60038;SDS011;45916;52.734;6.544;2023-04-24T08:42:18;14.00;;;10.02;;
60038;SDS011;45916;52.734;6.544;2023-04-24T08:44:44;14.73;;;9.73;;
60038;SDS011;45916;52.734;6.544;2023-04-24T08:47:11;14.50;;;9.75;;
60038;SDS011;45916;52.734;6.544;2023-04-24T08:49:37;15.90;;;10.88;;
60038;SDS011;45916;52.734;6.544;2023-04-24T08:52:07;16.15;;;11.73;;
60038;SDS011;45916;52.734;6.544;2023-04-24T08:54:36;17.50;;;10.88;;
60038;SDS011;45916;52.734;6.544;2023-04-24T08:57:02;18.85;;;12.25;;
60038;SDS011;45916;52.734;6.544;2023-04-24T08:59:29;20.23;;;14.13;;
60038;SDS011;45916;52.734;6.544;2023-04-24T09:01:56;20.23;;;15.23;;
60038;SDS011;45916;52.734;6.544;2023-04-24T09:04:23;29.02;;;18.15;;
60038;SDS011;45916;52.734;6.544;2023-04-24T09:06:56;23.88;;;18.88;;
60038;SDS011;45916;52.734;6.544;2023-04-24T09:09:23;22.55;;;18.35;;
60038;SDS011;45916;52.734;6.544;2023-04-24T09:11:50;29.00;;;20.08;;
60038;SDS011;45916;52.734;6.544;2023-04-24T09:14:18;27.63;;;19.65;;
60038;SDS011;45916;52.734;6.544;2023-04-24T09:16:45;28.55;;;18.83;;
60038;SDS011;45916;52.734;6.544;2023-04-24T09:19:12;26.50;;;18.90;;
60038;SDS011;45916;52.734;6.544;2023-04-24T09:21:38;25.42;;;18.83;;
60038;SDS011;45916;52.734;6.544;2023-04-24T09:24:06;26.10;;;19.48;;
60038;SDS011;45916;52.734;6.544;2023-04-24T09:26:34;22.38;;;18.30;;
60038;SDS011;45916;52.734;6.544;2023-04-24T09:29:01;24.20;;;17.40;;
60038;SDS011;45916;52.734;6.544;2023-04-24T09:31:28;24.38;;;16.42;;
60038;SDS011;45916;52.734;6.544;2023-04-24T09:36:27;23.63;;;16.52;;
60038;SDS011;45916;52.734;6.544;2023-04-24T09:38:58;23.08;;;17.42;;
60038;SDS011;45916;52.734;6.544;2023-04-24T09:41:24;20.67;;;17.02;;
60038;SDS011;45916;52.734;6.544;2023-04-24T09:43:53;22.40;;;16.65;;
60038;SDS011;45916;52.734;6.544;2023-04-24T09:46:20;23.08;;;16.02;;
60038;SDS011;45916;52.734;6.544;2023-04-24T09:48:47;21.95;;;14.93;;
60038;SDS011;45916;52.734;6.544;2023-04-24T09:51:13;21.70;;;14.73;;
60038;SDS011;45916;52.734;6.544;2023-04-24T09:53:44;23.95;;;14.77;;
60038;SDS011;45916;52.734;6.544;2023-04-24T09:56:11;19.30;;;13.05;;
60038;SDS011;45916;52.734;6.544;2023-04-24T09:58:38;21.95;;;13.75;;
60038;SDS011;45916;52.734;6.544;2023-04-24T10:01:04;16.45;;;12.48;;
60038;SDS011;45916;52.734;6.544;2023-04-24T10:03:31;16.33;;;11.70;;
60038;SDS011;45916;52.734;6.544;2023-04-24T10:06:01;16.10;;;11.45;;
60038;SDS011;45916;52.734;6.544;2023-04-24T10:08:33;17.40;;;12.27;;
60038;SDS011;45916;52.734;6.544;2023-04-24T10:11:00;16.27;;;11.02;;
60038;SDS011;45916;52.734;6.544;2023-04-24T10:13:26;15.27;;;10.02;;
60038;SDS011;45916;52.734;6.544;2023-04-24T10:15:53;16.10;;;11.23;;
60038;SDS011;45916;52.734;6.544;2023-04-24T10:18:21;12.17;;;10.03;;
60038;SDS011;45916;52.734;6.544;2023-04-24T10:20:47;16.55;;;9.32;;
60038;SDS011;45916;52.734;6.544;2023-04-24T10:23:13;15.00;;;9.50;;
60038;SDS011;45916;52.734;6.544;2023-04-24T10:25:40;14.00;;;9.07;;
60038;SDS011;45916;52.734;6.544;2023-04-24T10:28:05;14.23;;;9.27;;
60038;SDS011;45916;52.734;6.544;2023-04-24T10:30:32;12.15;;;6.68;;
60038;SDS011;45916;52.734;6.544;2023-04-24T10:33:00;10.23;;;7.03;;
60038;SDS011;45916;52.734;6.544;2023-04-24T10:35:30;14.52;;;7.65;;
60038;SDS011;45916;52.734;6.544;2023-04-24T10:37:58;11.43;;;7.22;;
60038;SDS011;45916;52.734;6.544;2023-04-24T10:40:32;12.25;;;6.88;;
60038;SDS011;45916;52.734;6.544;2023-04-24T10:43:01;10.43;;;5.93;;
60038;SDS011;45916;52.734;6.544;2023-04-24T10:45:28;11.52;;;6.18;;
60038;SDS011;45916;52.734;6.544;2023-04-24T10:47:58;11.43;;;6.32;;
60038;SDS011;45916;52.734;6.544;2023-04-24T10:51:11;9.40;;;5.63;;
60038;SDS011;45916;52.734;6.544;2023-04-24T10:53:19;10.68;;;5.93;;
60038;SDS011;45916;52.734;6.544;2023-04-24T10:58:22;13.25;;;5.88;;
60038;SDS011;45916;52.734;6.544;2023-04-24T11:00:58;13.50;;;5.70;;
60038;SDS011;45916;52.734;6.544;2023-04-24T11:03:25;12.10;;;5.70;;
60038;SDS011;45916;52.734;6.544;2023-04-24T11:06:02;8.98;;;5.07;;
60038;SDS011;45916;52.734;6.544;2023-04-24T11:11:14;13.18;;;6.13;;
60038;SDS011;45916;52.734;6.544;2023-04-24T11:21:44;10.73;;;5.22;;
60038;SDS011;45916;52.734;6.544;2023-04-24T11:29:48;10.15;;;4.13;;
60038;SDS011;45916;52.734;6.544;2023-04-24T11:32:28;11.43;;;4.68;;
60038;SDS011;45916;52.734;6.544;2023-04-24T11:34:59;11.95;;;3.88;;
60038;SDS011;45916;52.734;6.544;2023-04-24T11:37:36;9.55;;;3.38;;
60038;SDS011;45916;52.734;6.544;2023-04-24T11:40:03;10.85;;;4.13;;
60038;SDS011;45916;52.734;6.544;2023-04-24T11:42:37;11.60;;;3.40;;
60038;SDS011;45916;52.734;6.544;2023-04-24T11:45:15;11.07;;;3.83;;
60038;SDS011;45916;52.734;6.544;2023-04-24T11:47:47;8.77;;;3.70;;
60038;SDS011;45916;52.734;6.544;2023-04-24T11:50:13;7.35;;;3.50;;
60038;SDS011;45916;52.734;6.544;2023-04-24T11:52:41;9.63;;;3.72;;
60038;SDS011;45916;52.734;6.544;2023-04-24T11:57:41;6.65;;;3.28;;
60038;SDS011;45916;52.734;6.544;2023-04-24T12:00:14;9.57;;;3.55;;
60038;SDS011;45916;52.734;6.544;2023-04-24T12:03:04;8.13;;;3.53;;
60038;SDS011;45916;52.734;6.544;2023-04-24T12:05:30;7.68;;;3.65;;
60038;SDS011;45916;52.734;6.544;2023-04-24T12:07:56;6.82;;;3.40;;
60038;SDS011;45916;52.734;6.544;2023-04-24T12:10:22;9.57;;;3.28;;
60038;SDS011;45916;52.734;6.544;2023-04-24T12:12:50;9.18;;;3.70;;
60038;SDS011;45916;52.734;6.544;2023-04-24T12:15:18;11.55;;;3.65;;
60038;SDS011;45916;52.734;6.544;2023-04-24T12:17:45;6.97;;;3.10;;
60038;SDS011;45916;52.734;6.544;2023-04-24T12:20:11;6.75;;;3.03;;
60038;SDS011;45916;52.734;6.544;2023-04-24T12:22:47;9.43;;;3.80;;
60038;SDS011;45916;52.734;6.544;2023-04-24T12:25:18;8.43;;;3.65;;
60038;SDS011;45916;52.734;6.544;2023-04-24T12:27:45;6.97;;;2.47;;
60038;SDS011;45916;52.734;6.544;2023-04-24T12:30:15;10.73;;;2.90;;
60038;SDS011;45916;52.734;6.544;2023-04-24T12:32:45;7.45;;;3.45;;
60038;SDS011;45916;52.734;6.544;2023-04-24T12:35:13;8.75;;;3.03;;
60038;SDS011;45916;52.734;6.544;2023-04-24T12:37:45;7.15;;;3.00;;
60038;SDS011;45916;52.734;6.544;2023-04-24T12:40:11;7.07;;;2.38;;
60038;SDS011;45916;52.734;6.544;2023-04-24T12:42:50;5.75;;;2.33;;
60038;SDS011;45916;52.734;6.544;2023-04-24T12:45:17;4.05;;;1.40;;
60038;SDS011;45916;52.734;6.544;2023-04-24T12:47:43;5.20;;;1.65;;
60038;SDS011;45916;52.734;6.544;2023-04-24T12:50:11;5.07;;;1.85;;
60038;SDS011;45916;52.734;6.544;2023-04-24T12:52:38;5.10;;;1.80;;
60038;SDS011;45916;52.734;6.544;2023-04-24T12:55:05;4.32;;;1.90;;
60038;SDS011;45916;52.734;6.544;2023-04-24T13:00:00;3.95;;;1.60;;
60038;SDS011;45916;52.734;6.544;2023-04-24T13:02:27;8.38;;;1.90;;
60038;SDS011;45916;52.734;6.544;2023-04-24T13:04:56;5.20;;;1.92;;
60038;SDS011;45916;52.734;6.544;2023-04-24T13:07:22;6.38;;;2.20;;
60038;SDS011;45916;52.734;6.544;2023-04-24T13:09:49;7.35;;;1.98;;
60038;SDS011;45916;52.734;6.544;2023-04-24T13:12:15;5.35;;;2.20;;
60038;SDS011;45916;52.734;6.544;2023-04-24T13:14:41;8.40;;;2.53;;
60038;SDS011;45916;52.734;6.544;2023-04-24T13:17:07;7.35;;;2.33;;
60038;SDS011;45916;52.734;6.544;2023-04-24T13:19:37;5.57;;;2.17;;
60038;SDS011;45916;52.734;6.544;2023-04-24T13:22:04;8.07;;;2.22;;
60038;SDS011;45916;52.734;6.544;2023-04-24T13:24:30;7.88;;;2.95;;
60038;SDS011;45916;52.734;6.544;2023-04-24T13:26:57;7.47;;;2.47;;
60038;SDS011;45916;52.734;6.544;2023-04-24T13:29:23;8.60;;;2.30;;
60038;SDS011;45916;52.734;6.544;2023-04-24T13:31:52;6.20;;;2.45;;
60038;SDS011;45916;52.734;6.544;2023-04-24T13:34:21;7.40;;;2.22;;
60038;SDS011;45916;52.734;6.544;2023-04-24T13:36:51;6.45;;;2.60;;
60038;SDS011;45916;52.734;6.544;2023-04-24T13:39:18;7.75;;;2.80;;
60038;SDS011;45916;52.734;6.544;2023-04-24T13:41:44;7.93;;;2.20;;
60038;SDS011;45916;52.734;6.544;2023-04-24T13:44:12;6.22;;;2.15;;
60038;SDS011;45916;52.734;6.544;2023-04-24T13:46:37;6.40;;;2.28;;
60038;SDS011;45916;52.734;6.544;2023-04-24T13:49:03;6.00;;;2.17;;
60038;SDS011;45916;52.734;6.544;2023-04-24T13:51:29;7.32;;;2.08;;
60038;SDS011;45916;52.734;6.544;2023-04-24T13:53:55;5.28;;;1.65;;
60038;SDS011;45916;52.734;6.544;2023-04-24T13:56:21;5.80;;;2.00;;
60038;SDS011;45916;52.734;6.544;2023-04-24T13:58:47;7.03;;;1.83;;
60038;SDS011;45916;52.734;6.544;2023-04-24T14:01:13;7.38;;;2.40;;
60038;SDS011;45916;52.734;6.544;2023-04-24T14:03:40;7.80;;;2.00;;
60038;SDS011;45916;52.734;6.544;2023-04-24T14:06:06;6.40;;;2.35;;
60038;SDS011;45916;52.734;6.544;2023-04-24T14:08:32;6.25;;;2.15;;
60038;SDS011;45916;52.734;6.544;2023-04-24T14:10:58;8.10;;;2.40;;
60038;SDS011;45916;52.734;6.544;2023-04-24T14:13:23;8.30;;;2.65;;
60038;SDS011;45916;52.734;6.544;2023-04-24T14:15:49;8.88;;;2.92;;
60038;SDS011;45916;52.734;6.544;2023-04-24T14:18:15;12.45;;;2.97;;
60038;SDS011;45916;52.734;6.544;2023-04-24T14:20:42;8.25;;;2.80;;
60038;SDS011;45916;52.734;6.544;2023-04-24T14:23:07;9.40;;;3.50;;
60038;SDS011;45916;52.734;6.544;2023-04-24T14:25:33;9.15;;;3.45;;
60038;SDS011;45916;52.734;6.544;2023-04-24T14:27:59;9.70;;;3.35;;
60038;SDS011;45916;52.734;6.544;2023-04-24T14:30:25;11.43;;;3.75;;
60038;SDS011;45916;52.734;6.544;2023-04-24T14:32:50;10.95;;;3.60;;
60038;SDS011;45916;52.734;6.544;2023-04-24T14:35:16;8.95;;;3.45;;
60038;SDS011;45916;52.734;6.544;2023-04-24T14:37:42;9.45;;;3.25;;
60038;SDS011;45916;52.734;6.544;2023-04-24T14:40:08;7.18;;;2.88;;
60038;SDS011;45916;52.734;6.544;2023-04-24T14:42:34;9.55;;;3.85;;
60038;SDS011;45916;52.734;6.544;2023-04-24T14:45:00;6.78;;;2.85;;
60038;SDS011;45916;52.734;6.544;2023-04-24T14:47:26;8.20;;;2.92;;
60038;SDS011;45916;52.734;6.544;2023-04-24T14:49:52;11.93;;;3.65;;
60038;SDS011;45916;52.734;6.544;2023-04-24T14:52:17;10.80;;;3.70;;
60038;SDS011;45916;52.734;6.544;2023-04-24T14:54:44;13.10;;;4.13;;
60038;SDS011;45916;52.734;6.544;2023-04-24T14:57:10;10.90;;;3.72;;
60038;SDS011;45916;52.734;6.544;2023-04-24T14:59:36;11.38;;;3.83;;
60038;SDS011;45916;52.734;6.544;2023-04-24T15:02:01;12.63;;;3.58;;
60038;SDS011;45916;52.734;6.544;2023-04-24T15:04:28;11.27;;;3.42;;
60038;SDS011;45916;52.734;6.544;2023-04-24T15:06:54;11.75;;;4.18;;